createdAt,value
2019-02-06T00:03:57.666Z,18.03
2019-02-06T00:06:25.727Z,15.93
2019-02-06T00:08:54.050Z,17.57
2019-02-06T00:11:22.100Z,14.97
2019-02-06T00:13:51.023Z,17.30
2019-02-06T00:16:19.149Z,16.80
2019-02-06T00:18:47.551Z,13.63
2019-02-06T00:21:15.642Z,15.10
2019-02-06T00:23:43.704Z,14.17
2019-02-06T00:26:12.119Z,14.40
2019-02-06T00:28:40.271Z,16.07
2019-02-06T00:31:08.315Z,15.23
2019-02-06T00:33:36.363Z,17.03
2019-02-06T00:36:04.488Z,15.57
2019-02-06T00:38:32.544Z,17.80
2019-02-06T00:41:00.591Z,16.13
2019-02-06T00:43:28.834Z,15.90
2019-02-06T00:45:56.887Z,15.50
2019-02-06T00:48:24.940Z,19.07
2019-02-06T00:50:53.004Z,15.93
2019-02-06T00:53:21.059Z,16.80
2019-02-06T00:55:49.151Z,16.67
2019-02-06T00:58:17.202Z,17.80
2019-02-06T01:00:45.251Z,18.50
2019-02-06T01:03:13.446Z,21.27
2019-02-06T01:05:41.498Z,21.03
2019-02-06T01:08:09.578Z,16.97
2019-02-06T01:10:37.639Z,18.67
2019-02-06T01:13:05.699Z,17.83
2019-02-06T01:15:33.750Z,18.53
2019-02-06T01:18:01.815Z,17.90
2019-02-06T01:20:29.883Z,16.83
2019-02-06T01:22:58.221Z,21.57
2019-02-06T01:25:26.266Z,16.50
2019-02-06T01:27:54.334Z,23.13
2019-02-06T01:30:24.022Z,17.27
2019-02-06T01:32:52.082Z,21.87
2019-02-06T01:35:20.845Z,18.37
2019-02-06T01:37:48.989Z,18.60
2019-02-06T01:40:18.578Z,17.10
2019-02-06T01:42:46.707Z,19.95
2019-02-06T01:45:17.838Z,19.40
2019-02-06T01:47:46.002Z,17.92
2019-02-06T01:50:15.811Z,17.67
2019-02-06T01:52:43.859Z,15.87
2019-02-06T01:55:12.985Z,16.73
2019-02-06T01:57:41.110Z,20.53
2019-02-06T02:00:13.658Z,17.47
2019-02-06T02:02:41.756Z,18.77
2019-02-06T02:05:09.816Z,17.63
2019-02-06T02:07:37.970Z,17.73
2019-02-06T02:10:07.571Z,20.13
2019-02-06T02:12:35.641Z,20.90
2019-02-06T02:15:05.731Z,20.53
2019-02-06T02:17:33.854Z,19.23
2019-02-06T02:20:01.911Z,17.00
2019-02-06T02:22:30.330Z,15.43
2019-02-06T02:24:58.395Z,21.35
2019-02-06T02:27:26.458Z,23.80
2019-02-06T02:29:54.560Z,22.53
2019-02-06T02:32:22.613Z,19.97
2019-02-06T02:34:50.684Z,18.37
2019-02-06T02:37:19.174Z,20.27
2019-02-06T02:39:47.267Z,21.60
2019-02-06T02:42:15.306Z,20.63
2019-02-06T02:44:43.389Z,21.05
2019-02-06T02:47:11.436Z,18.47
2019-02-06T02:49:39.479Z,19.27
2019-02-06T02:52:07.578Z,16.97
2019-02-06T02:54:35.642Z,16.48
2019-02-06T02:57:03.737Z,20.10
2019-02-06T02:59:31.792Z,18.70
2019-02-06T03:02:01.483Z,19.97
2019-02-06T03:04:29.551Z,18.70
2019-02-06T03:06:57.618Z,18.73
2019-02-06T03:09:25.750Z,19.20
2019-02-06T03:11:54.098Z,19.30
2019-02-06T03:14:22.148Z,19.10
2019-02-06T03:16:50.722Z,21.63
2019-02-06T03:19:18.823Z,20.70
2019-02-06T03:21:46.899Z,22.70
2019-02-06T03:24:14.957Z,21.15
2019-02-06T03:26:43.018Z,22.50
2019-02-06T03:29:11.350Z,22.37
2019-02-06T03:31:39.399Z,25.00
2019-02-06T03:34:07.451Z,19.43
2019-02-06T03:36:40.465Z,21.65
2019-02-06T03:39:06.795Z,20.80
2019-02-06T03:41:34.912Z,19.82
2019-02-06T03:44:03.082Z,24.17
2019-02-06T03:46:31.145Z,23.30
2019-02-06T03:48:59.182Z,22.17
2019-02-06T03:51:27.596Z,20.15
2019-02-06T03:53:55.684Z,21.07
2019-02-06T03:56:23.757Z,20.25
2019-02-06T03:58:51.823Z,19.37
2019-02-06T04:01:19.878Z,20.23
2019-02-06T04:03:47.959Z,22.95
2019-02-06T04:06:16.022Z,23.50
2019-02-06T04:08:44.080Z,23.57
2019-02-06T04:11:12.142Z,21.12
2019-02-06T04:13:40.189Z,19.37
2019-02-06T04:16:08.313Z,25.50
2019-02-06T04:18:36.363Z,21.97
2019-02-06T04:21:04.426Z,20.37
2019-02-06T04:23:32.482Z,24.77
2019-02-06T04:26:00.546Z,22.00
2019-02-06T04:28:28.646Z,21.05
2019-02-06T04:30:56.722Z,23.80
2019-02-06T04:33:24.790Z,25.97
2019-02-06T04:35:53.231Z,22.17
2019-02-06T04:38:21.287Z,22.98
2019-02-06T04:40:49.351Z,23.77
2019-02-06T04:43:17.431Z,25.15
2019-02-06T04:45:45.494Z,23.85
2019-02-06T04:48:14.906Z,22.82
2019-02-06T04:50:43.047Z,22.75
2019-02-06T04:53:11.379Z,22.70
2019-02-06T04:55:39.471Z,20.35
2019-02-06T04:58:07.534Z,20.52
2019-02-06T05:00:35.586Z,25.60
2019-02-06T05:03:03.719Z,23.70
2019-02-06T05:05:31.778Z,24.00
2019-02-06T05:07:59.844Z,27.07
2019-02-06T05:10:28.215Z,27.52
2019-02-06T05:12:56.274Z,22.10
2019-02-06T05:15:24.336Z,24.75
2019-02-06T05:17:55.702Z,23.70
2019-02-06T05:20:23.714Z,23.83
2019-02-06T05:22:51.778Z,20.52
2019-02-06T05:25:19.864Z,24.92
2019-02-06T05:27:48.098Z,21.45
2019-02-06T05:30:16.441Z,24.18
2019-02-06T05:32:44.498Z,25.32
2019-02-06T05:35:12.636Z,23.73
2019-02-06T05:37:40.778Z,21.42
2019-02-06T05:40:10.074Z,22.67
2019-02-06T05:42:39.707Z,26.15
2019-02-06T05:45:08.752Z,23.05
2019-02-06T05:47:36.812Z,23.22
2019-02-06T05:50:06.431Z,23.90
2019-02-06T05:52:34.574Z,25.57
2019-02-06T05:55:04.769Z,27.42
2019-02-06T05:57:32.427Z,26.60
2019-02-06T06:00:01.232Z,23.75
2019-02-06T06:02:29.314Z,25.20
2019-02-06T06:04:57.751Z,23.32
2019-02-06T06:07:25.802Z,27.20
2019-02-06T06:09:53.895Z,24.82
2019-02-06T06:12:21.963Z,28.27
2019-02-06T06:14:50.056Z,22.40
2019-02-06T06:17:18.309Z,27.05
2019-02-06T06:19:47.182Z,23.20
2019-02-06T06:22:15.322Z,25.33
2019-02-06T06:24:43.380Z,21.70
2019-02-06T06:27:11.459Z,28.17
2019-02-06T06:29:39.542Z,23.15
2019-02-06T06:32:07.664Z,27.95
2019-02-06T06:34:35.736Z,21.90
2019-02-06T06:37:03.831Z,27.75
2019-02-06T06:39:31.917Z,23.77
2019-02-06T06:42:00.061Z,26.02
2019-02-06T06:44:28.123Z,22.62
2019-02-06T06:46:56.235Z,23.10
2019-02-06T06:49:24.303Z,26.42
2019-02-06T06:51:52.543Z,30.77
2019-02-06T06:54:20.618Z,25.57
2019-02-06T06:56:48.687Z,24.05
2019-02-06T06:59:16.837Z,25.85
2019-02-06T07:01:44.901Z,25.60
2019-02-06T07:04:12.958Z,23.05
2019-02-06T07:06:41.031Z,27.70
2019-02-06T07:09:09.359Z,22.48
2019-02-06T07:11:37.462Z,26.42
2019-02-06T07:14:05.547Z,24.45
2019-02-06T07:16:33.679Z,28.90
2019-02-06T07:19:01.918Z,27.45
2019-02-06T07:21:29.979Z,24.07
2019-02-06T07:23:58.042Z,26.07
2019-02-06T07:26:26.434Z,28.27
2019-02-06T07:28:54.507Z,26.52
2019-02-06T07:31:22.577Z,30.10
2019-02-06T07:33:50.641Z,27.73
2019-02-06T07:36:18.699Z,31.53
2019-02-06T07:38:46.764Z,25.40
2019-02-06T07:41:14.846Z,29.85
2019-02-06T07:43:43.274Z,32.30
2019-02-06T07:46:11.346Z,27.73
2019-02-06T07:48:39.419Z,25.30
2019-02-06T07:51:07.841Z,27.83
2019-02-06T07:53:35.930Z,28.65
2019-02-06T07:56:04.100Z,25.67
2019-02-06T07:58:32.275Z,30.23
2019-02-06T08:01:00.702Z,28.67
2019-02-06T08:03:28.748Z,27.90
2019-02-06T08:05:56.814Z,31.83
2019-02-06T08:08:35.354Z,28.90
2019-02-06T08:10:54.708Z,26.00
2019-02-06T08:13:22.771Z,33.00
2019-02-06T08:15:50.841Z,26.73
2019-02-06T08:18:19.734Z,30.33
2019-02-06T08:20:47.856Z,25.80
2019-02-06T08:23:15.963Z,33.47
2019-02-06T08:25:44.076Z,30.70
2019-02-06T08:28:12.192Z,25.50
2019-02-06T08:30:40.812Z,32.97
2019-02-06T08:33:08.876Z,31.27
2019-02-06T08:35:36.996Z,27.27
2019-02-06T08:38:05.146Z,29.33
2019-02-06T08:40:33.279Z,28.03
2019-02-06T08:43:01.350Z,28.77
2019-02-06T08:45:29.399Z,26.50
2019-02-06T08:47:57.457Z,29.07
2019-02-06T08:50:26.001Z,24.90
2019-02-06T08:52:54.058Z,30.43
2019-02-06T08:55:29.635Z,31.67
2019-02-06T08:57:57.694Z,27.43
2019-02-06T09:00:26.867Z,29.63
2019-02-06T09:02:55.070Z,29.23
2019-02-06T09:05:23.127Z,29.10
2019-02-06T09:07:51.182Z,28.77
2019-02-06T09:10:20.719Z,27.50
2019-02-06T09:12:48.796Z,29.93
2019-02-06T09:15:17.012Z,29.47
2019-02-06T09:17:45.157Z,31.57
2019-02-06T09:20:20.975Z,27.83
2019-02-06T09:22:49.075Z,29.70
2019-02-06T09:25:18.203Z,28.73
2019-02-06T09:27:46.258Z,29.33
2019-02-06T09:30:18.520Z,31.33
2019-02-06T09:32:46.610Z,29.10
2019-02-06T09:35:14.849Z,27.97
2019-02-06T09:37:43.402Z,27.13
2019-02-06T09:40:16.223Z,33.37
2019-02-06T09:42:44.283Z,28.53
2019-02-06T09:45:13.392Z,29.67
2019-02-06T09:47:41.443Z,27.43
2019-02-06T09:50:11.039Z,28.27
2019-02-06T09:52:39.462Z,26.57
2019-02-06T09:55:07.601Z,27.10
2019-02-06T09:57:35.691Z,26.63
2019-02-06T10:00:05.298Z,30.47
2019-02-06T10:02:33.347Z,28.33
2019-02-06T10:05:01.406Z,31.57
2019-02-06T10:07:29.464Z,31.17
2019-02-06T10:09:58.111Z,27.57
2019-02-06T10:12:26.148Z,30.93
2019-02-06T10:14:54.206Z,27.57
2019-02-06T10:17:22.262Z,29.17
2019-02-06T10:19:50.320Z,31.83
2019-02-06T10:22:19.063Z,28.10
2019-02-06T10:24:47.154Z,29.70
2019-02-06T10:27:15.481Z,31.83
2019-02-06T10:29:43.529Z,31.60
2019-02-06T10:32:11.578Z,31.43
2019-02-06T10:34:39.654Z,25.37
2019-02-06T10:37:07.699Z,28.70
2019-02-06T10:39:35.774Z,27.57
2019-02-06T10:42:04.191Z,27.83
2019-02-06T10:44:32.256Z,30.07
2019-02-06T10:47:00.308Z,30.53
2019-02-06T10:49:28.378Z,27.93
2019-02-06T10:51:56.439Z,29.57
2019-02-06T10:54:25.283Z,29.53
2019-02-06T10:56:53.483Z,30.87
2019-02-06T10:59:21.546Z,29.53
2019-02-06T11:01:49.671Z,33.90
2019-02-06T11:04:17.735Z,35.93
2019-02-06T11:06:45.856Z,32.77
2019-02-06T11:09:13.923Z,35.07
2019-02-06T11:11:41.965Z,31.50
2019-02-06T11:14:10.014Z,31.73
2019-02-06T11:16:38.105Z,30.57
2019-02-06T11:19:06.146Z,30.93
2019-02-06T11:21:34.254Z,31.17
2019-02-06T11:24:02.316Z,30.33
2019-02-06T11:26:30.442Z,31.27
2019-02-06T11:28:58.519Z,30.33
2019-02-06T11:31:26.577Z,30.13
2019-02-06T11:33:54.654Z,27.40
2019-02-06T11:36:24.441Z,30.90
2019-02-06T11:38:52.630Z,28.43
2019-02-06T11:41:20.682Z,32.90
2019-02-06T11:43:48.775Z,29.70
2019-02-06T11:46:16.834Z,32.90
2019-02-06T11:48:44.878Z,29.90
2019-02-06T11:51:13.323Z,30.73
2019-02-06T11:53:41.375Z,33.10
2019-02-06T11:56:09.452Z,34.77
2019-02-06T11:58:37.507Z,32.83
2019-02-06T12:01:07.278Z,33.20
2019-02-06T12:03:35.339Z,33.13
2019-02-06T12:06:03.588Z,35.73
2019-02-06T12:08:31.994Z,36.20
2019-02-06T12:11:00.129Z,36.20
2019-02-06T12:13:28.450Z,37.70
2019-02-06T12:15:56.506Z,36.43
2019-02-06T12:18:24.558Z,35.80
2019-02-06T12:20:52.658Z,36.47
2019-02-06T12:23:31.563Z,34.13
2019-02-06T12:25:50.839Z,35.50
2019-02-06T12:28:18.886Z,34.67
2019-02-06T12:30:46.994Z,36.40
2019-02-06T12:33:15.066Z,34.37
2019-02-06T12:35:43.123Z,36.97
2019-02-06T12:38:11.171Z,35.83
2019-02-06T12:40:39.219Z,37.37
2019-02-06T12:43:10.402Z,34.20
2019-02-06T12:45:37.482Z,34.27
2019-02-06T12:48:05.754Z,36.00
2019-02-06T12:50:33.876Z,35.60
2019-02-06T12:53:01.934Z,36.97
2019-02-06T12:55:31.523Z,38.00
2019-02-06T12:57:59.646Z,36.87
2019-02-06T13:00:32.342Z,37.47
2019-02-06T13:03:00.536Z,42.17
2019-02-06T13:05:29.103Z,34.17
2019-02-06T13:07:57.154Z,38.03
2019-02-06T13:10:33.281Z,36.43
2019-02-06T13:12:54.985Z,35.77
2019-02-06T13:15:23.046Z,33.33
2019-02-06T13:17:51.374Z,33.23
2019-02-06T13:20:21.089Z,36.03
2019-02-06T13:22:49.402Z,40.70
2019-02-06T13:25:17.452Z,40.60
2019-02-06T13:27:45.495Z,37.37
2019-02-06T13:30:29.826Z,43.57
2019-02-06T13:32:57.955Z,37.43
2019-02-06T13:35:26.074Z,30.83
2019-02-06T13:37:54.402Z,36.07
2019-02-06T13:40:23.515Z,36.57
2019-02-06T13:42:51.662Z,36.03
2019-02-06T13:45:20.874Z,35.07
2019-02-06T13:47:49.322Z,35.93
2019-02-06T13:50:22.190Z,41.93
2019-02-06T13:52:48.998Z,36.73
2019-02-06T13:55:17.314Z,36.27
2019-02-06T13:57:45.514Z,35.73
2019-02-06T14:00:17.518Z,38.83
2019-02-06T14:02:45.920Z,38.93
2019-02-06T14:05:15.153Z,40.27
2019-02-06T14:07:43.266Z,36.90
2019-02-06T14:10:12.786Z,39.07
2019-02-06T14:12:40.854Z,39.63
2019-02-06T14:15:10.455Z,34.93
2019-02-06T14:17:38.778Z,38.10
2019-02-06T14:20:08.363Z,40.53
2019-02-06T14:22:36.420Z,40.43
2019-02-06T14:25:08.651Z,37.30
2019-02-06T14:27:38.230Z,36.57
2019-02-06T14:30:14.379Z,39.23
2019-02-06T14:32:46.978Z,36.43
2019-02-06T14:35:16.567Z,32.30
2019-02-06T14:37:48.967Z,36.23
2019-02-06T14:40:18.570Z,37.87
2019-02-06T14:42:53.846Z,38.97
2019-02-06T14:45:35.369Z,38.37
2019-02-06T14:48:07.595Z,34.73
2019-02-06T14:50:43.212Z,38.07
2019-02-06T14:53:13.088Z,38.20
2019-02-06T14:55:54.714Z,36.73
2019-02-06T14:58:24.453Z,37.77
2019-02-06T15:00:59.882Z,35.80
2019-02-06T15:03:25.409Z,36.07
2019-02-06T15:06:07.083Z,36.10
2019-02-06T15:08:39.319Z,39.40
2019-02-06T15:11:19.173Z,32.37
2019-02-06T15:13:40.215Z,32.53
2019-02-06T15:16:18.632Z,38.80
2019-02-06T15:19:00.167Z,34.07
2019-02-06T15:21:48.078Z,34.67
2019-02-06T15:24:17.684Z,41.57
2019-02-06T15:26:56.394Z,33.83
2019-02-06T15:29:42.466Z,36.63
2019-02-06T15:32:16.167Z,39.23
2019-02-06T15:34:51.826Z,42.67
2019-02-06T15:37:27.439Z,37.43
2019-02-06T15:40:13.261Z,36.10
2019-02-06T15:42:51.500Z,41.47
2019-02-06T15:45:21.118Z,36.37
2019-02-06T15:47:53.490Z,40.67
2019-02-06T15:50:26.689Z,34.47
2019-02-06T15:53:09.499Z,39.63
2019-02-06T15:55:55.427Z,43.40
2019-02-06T15:58:27.703Z,38.57
2019-02-06T16:01:03.361Z,41.83
2019-02-06T16:03:34.602Z,33.60
2019-02-06T16:06:11.926Z,39.07
2019-02-06T16:08:41.511Z,38.57
2019-02-06T16:11:14.235Z,37.53
2019-02-06T16:13:52.470Z,41.37
2019-02-06T16:16:39.498Z,34.33
2019-02-06T16:19:09.366Z,40.23
2019-02-06T16:21:52.761Z,35.73
2019-02-06T16:24:16.331Z,38.93
2019-02-06T16:26:51.838Z,35.77
2019-02-06T16:29:39.327Z,37.40
2019-02-06T16:32:20.850Z,38.77
2019-02-06T16:34:53.138Z,39.80
2019-02-06T16:37:38.990Z,44.20
2019-02-06T16:40:18.035Z,41.63
2019-02-06T16:43:02.684Z,40.40
2019-02-06T16:45:35.211Z,36.43
2019-02-06T16:48:04.808Z,39.80
2019-02-06T16:50:49.458Z,34.50
2019-02-06T16:53:37.124Z,36.37
2019-02-06T16:56:12.407Z,35.43
2019-02-06T16:58:54.003Z,38.00
2019-02-06T17:01:26.494Z,38.00
2019-02-06T17:03:59.430Z,37.37
2019-02-06T17:06:29.015Z,38.87
2019-02-06T17:08:58.606Z,40.33
2019-02-06T17:11:37.158Z,38.63
2019-02-06T17:14:18.726Z,39.13
2019-02-06T17:16:50.974Z,42.23
2019-02-06T17:19:37.125Z,37.10
2019-02-06T17:22:09.550Z,39.53
2019-02-06T17:24:39.159Z,34.20
2019-02-06T17:27:08.748Z,34.87
2019-02-06T17:29:38.327Z,38.00
2019-02-06T17:32:16.926Z,35.80
2019-02-06T17:34:46.523Z,42.87
2019-02-06T17:37:32.707Z,52.00
2019-02-06T17:40:02.330Z,40.60
2019-02-06T17:42:34.826Z,35.97
2019-02-06T17:45:07.341Z,36.13
2019-02-06T17:47:39.635Z,34.53
2019-02-06T17:50:09.226Z,34.63
2019-02-06T17:52:44.544Z,40.77
2019-02-06T17:55:14.990Z,34.73
2019-02-06T17:57:43.454Z,35.77
2019-02-06T18:00:13.550Z,35.10
2019-02-06T18:02:41.608Z,34.17
2019-02-06T18:05:09.718Z,40.63
2019-02-06T18:07:38.094Z,38.37
2019-02-06T18:10:07.699Z,36.17
2019-02-06T18:12:35.760Z,33.27
2019-02-06T18:15:05.129Z,38.43
2019-02-06T18:17:33.201Z,33.13
2019-02-06T18:20:01.254Z,33.60
2019-02-06T18:22:29.331Z,33.03
2019-02-06T18:24:57.379Z,35.40
2019-02-06T18:27:25.443Z,39.67
2019-02-06T18:29:53.515Z,41.53
2019-02-06T18:32:21.774Z,41.57
2019-02-06T18:34:49.856Z,43.80
2019-02-06T18:37:17.953Z,39.27
2019-02-06T18:39:46.095Z,40.27
2019-02-06T18:42:14.227Z,38.27
2019-02-06T18:44:42.297Z,36.13
2019-02-06T18:47:10.389Z,40.97
2019-02-06T18:49:38.454Z,38.80
2019-02-06T18:52:06.955Z,37.80
2019-02-06T18:54:35.034Z,39.53
2019-02-06T18:57:03.137Z,34.37
2019-02-06T18:59:31.275Z,37.97
2019-02-06T19:01:59.400Z,38.70
2019-02-06T19:04:27.539Z,32.30
2019-02-06T19:06:55.704Z,37.63
2019-02-06T19:09:24.190Z,30.50
2019-02-06T19:11:52.298Z,32.93
2019-02-06T19:14:20.588Z,36.87
2019-02-06T19:16:48.729Z,32.37
2019-02-06T19:19:25.028Z,33.67
2019-02-06T19:21:46.577Z,39.33
2019-02-06T19:24:14.646Z,32.20
2019-02-06T19:26:42.707Z,32.33
2019-02-06T19:29:10.791Z,46.53
2019-02-06T19:31:38.855Z,36.33
2019-02-06T19:34:07.001Z,33.93
2019-02-06T19:36:35.063Z,35.90
2019-02-06T19:39:04.656Z,37.13
2019-02-06T19:41:32.782Z,33.73
2019-02-06T19:44:00.889Z,29.53
2019-02-06T19:46:28.944Z,33.13
2019-02-06T19:48:57.071Z,28.20
2019-02-06T19:51:27.733Z,29.07
2019-02-06T19:53:55.784Z,29.03
2019-02-06T19:56:24.060Z,26.30
2019-02-06T19:58:52.122Z,26.77
2019-02-06T20:01:20.180Z,33.23
2019-02-06T20:03:48.251Z,29.40
2019-02-06T20:06:28.527Z,25.53
2019-02-06T20:08:57.596Z,30.97
2019-02-06T20:11:26.256Z,31.77
2019-02-06T20:13:54.354Z,31.53
2019-02-06T20:16:22.499Z,31.50
2019-02-06T20:18:50.570Z,32.70
2019-02-06T20:21:18.618Z,31.50
2019-02-06T20:23:46.694Z,38.87
2019-02-06T20:26:14.765Z,33.53
2019-02-06T20:28:42.820Z,31.70
2019-02-06T20:31:10.886Z,31.83
2019-02-06T20:33:40.570Z,34.83
2019-02-06T20:36:08.643Z,34.20
2019-02-06T20:38:36.706Z,33.30
2019-02-06T20:41:04.772Z,29.50
2019-02-06T20:43:32.846Z,30.77
2019-02-06T20:46:01.182Z,30.63
2019-02-06T20:48:29.244Z,27.63
2019-02-06T20:50:57.323Z,39.80
2019-02-06T20:53:25.375Z,37.90
2019-02-06T20:55:53.455Z,30.13
2019-02-06T20:58:21.523Z,27.30
2019-02-06T21:00:49.667Z,25.80
2019-02-06T21:03:17.827Z,28.03
2019-02-06T21:05:46.055Z,28.17
2019-02-06T21:08:14.118Z,27.67
2019-02-06T21:10:42.184Z,29.57
2019-02-06T21:13:10.505Z,27.77
2019-02-06T21:15:38.628Z,25.07
2019-02-06T21:18:06.734Z,26.60
2019-02-06T21:20:34.848Z,27.43
2019-02-06T21:23:03.091Z,25.47
2019-02-06T21:25:31.154Z,25.83
2019-02-06T21:27:59.220Z,26.07
2019-02-06T21:30:28.479Z,27.50
2019-02-06T21:32:56.531Z,31.93
2019-02-06T21:35:24.773Z,29.53
2019-02-06T21:37:52.835Z,30.33
2019-02-06T21:40:24.620Z,28.67
2019-02-06T21:42:52.683Z,32.87
2019-02-06T21:45:20.839Z,32.03
2019-02-06T21:47:48.902Z,29.77
2019-02-06T21:50:17.959Z,31.80
2019-02-06T21:52:46.182Z,33.70
2019-02-06T21:55:15.590Z,28.03
2019-02-06T21:57:43.674Z,32.17
2019-02-06T22:00:16.450Z,29.30
2019-02-06T22:02:44.599Z,29.33
2019-02-06T22:05:14.421Z,32.15
2019-02-06T22:07:42.779Z,30.40
2019-02-06T22:10:12.895Z,28.60
2019-02-06T22:12:40.966Z,33.30
2019-02-06T22:15:13.833Z,28.93
2019-02-06T22:17:41.975Z,27.97
2019-02-06T22:20:10.095Z,30.03
2019-02-06T22:22:38.186Z,29.57
2019-02-06T22:25:06.914Z,28.20
2019-02-06T22:27:34.967Z,32.80
2019-02-06T22:30:04.567Z,30.10
2019-02-06T22:32:32.614Z,33.67
2019-02-06T22:35:00.666Z,32.57
2019-02-06T22:37:28.788Z,36.70
2019-02-06T22:39:57.123Z,30.40
2019-02-06T22:42:25.179Z,35.30
2019-02-06T22:44:53.238Z,33.23
2019-02-06T22:47:21.302Z,32.57
2019-02-06T22:49:49.350Z,34.70
2019-02-06T22:52:17.450Z,31.82
2019-02-06T22:54:45.514Z,32.30
2019-02-06T22:57:13.847Z,34.10
2019-02-06T22:59:41.915Z,30.50
2019-02-06T23:02:10.293Z,29.50
2019-02-06T23:04:38.447Z,30.17
2019-02-06T23:07:07.265Z,30.47
2019-02-06T23:09:35.538Z,29.45
2019-02-06T23:12:03.901Z,31.93
2019-02-06T23:14:32.038Z,30.87
2019-02-06T23:17:00.135Z,33.93
2019-02-06T23:19:28.178Z,32.27
2019-02-06T23:21:56.238Z,28.17
2019-02-06T23:24:24.371Z,33.63
2019-02-06T23:26:52.550Z,34.70
2019-02-06T23:29:20.955Z,31.83
2019-02-06T23:31:49.050Z,30.70
2019-02-06T23:34:17.124Z,31.67
2019-02-06T23:36:46.671Z,30.17
2019-02-06T23:39:14.842Z,31.75
2019-02-06T23:41:42.922Z,29.93
2019-02-06T23:44:11.422Z,37.00
2019-02-06T23:46:39.491Z,28.47
2019-02-06T23:49:07.613Z,33.03
2019-02-06T23:51:37.838Z,32.08
2019-02-06T23:54:05.953Z,31.77
2019-02-06T23:56:34.039Z,31.93
2019-02-06T23:59:02.176Z,28.87
